Time;durP1;ratioP1;P1;durP2;ratioP2;P2;SDS_P1;SDS_P2;PMS_P1;PMS_P2;Temp;Humidity;BMP_temperature;BMP_pressure;BME280_temperature;BME280_humidity;BME280_pressure;Samples;Min_cycle;Max_cycle;Signal;HPM_P1;HPM_P2
2021/07/03 04:00:21;;;;;;;14.80;13.30;;;14.50;99.90;;;;;;6011117;23;20382;-62
2021/07/03 04:02:48;;;;;;;15.27;13.80;;;14.50;99.90;;;;;;4956980;28;20448;-63
2021/07/03 04:05:16;;;;;;;15.50;13.87;;;14.40;99.90;;;;;;4956694;28;20451;-63
2021/07/03 04:07:43;;;;;;;14.93;13.30;;;14.40;99.90;;;;;;4956886;28;20466;-62
2021/07/03 04:10:13;;;;;;;14.37;12.87;;;14.50;99.90;;;;;;4956867;28;20856;-62
2021/07/03 04:12:41;;;;;;;14.13;12.83;;;14.50;99.90;;;;;;4956721;28;20517;-62
2021/07/03 04:15:09;;;;;;;14.40;13.00;;;14.60;99.90;;;;;;4956635;28;20456;-63
2021/07/03 04:17:37;;;;;;;14.77;13.47;;;14.80;99.90;;;;;;4956463;28;20455;-62
2021/07/03 04:20:06;;;;;;;15.07;13.23;;;14.80;99.90;;;;;;4956709;28;20462;-62
2021/07/03 04:22:34;;;;;;;14.63;12.90;;;14.60;99.90;;;;;;4955990;28;20982;-62
2021/07/03 04:25:01;;;;;;;14.10;12.80;;;14.50;99.90;;;;;;4956562;28;20502;-62
2021/07/03 04:27:28;;;;;;;16.77;12.73;;;14.50;99.90;;;;;;4956620;28;20455;-62
2021/07/03 04:29:54;;;;;;;15.57;13.97;;;14.40;99.90;;;;;;4956812;28;20463;-63
2021/07/03 04:32:21;;;;;;;14.77;13.40;;;14.50;99.90;;;;;;4956869;28;20494;-63
2021/07/03 04:34:49;;;;;;;16.13;13.50;;;14.50;99.90;;;;;;4956296;28;20557;-62
2021/07/03 04:37:16;;;;;;;16.53;14.93;;;14.60;99.90;;;;;;4956176;28;20463;-63
2021/07/03 04:39:42;;;;;;;17.03;15.30;;;14.60;99.90;;;;;;4956222;28;20470;-62
2021/07/03 04:42:09;;;;;;;16.43;14.20;;;14.70;99.90;;;;;;4955868;28;20978;-62
2021/07/03 04:44:36;;;;;;;17.33;15.60;;;14.80;99.90;;;;;;4955926;28;20455;-63
2021/07/03 04:47:03;;;;;;;18.83;15.13;;;14.80;99.90;;;;;;4955849;28;20966;-62
2021/07/03 04:49:33;;;;;;;16.90;15.17;;;14.70;99.90;;;;;;4956322;28;20817;-62
2021/07/03 04:52:02;;;;;;;18.30;14.57;;;14.80;99.90;;;;;;4955665;28;21010;-62
2021/07/03 04:54:28;;;;;;;16.37;14.77;;;14.80;99.90;;;;;;4956145;28;20519;-62
2021/07/03 04:57:06;;;;;;;19.60;15.13;;;14.90;99.90;;;;;;4956134;28;20455;-62
2021/07/03 04:59:34;;;;;;;15.23;13.83;;;14.90;99.90;;;;;;4956225;28;20449;-61
2021/07/03 05:02:00;;;;;;;17.07;15.27;;;15.00;99.90;;;;;;4955686;28;20484;-61
2021/07/03 05:04:27;;;;;;;14.93;13.43;;;15.00;99.90;;;;;;4956161;28;20455;-62
2021/07/03 05:06:54;;;;;;;14.43;12.97;;;15.10;99.90;;;;;;4956043;28;20459;-62
2021/07/03 05:09:22;;;;;;;15.10;13.60;;;15.10;99.90;;;;;;4955740;28;20943;-62
2021/07/03 05:11:48;;;;;;;15.33;13.73;;;15.10;99.90;;;;;;4955939;28;20479;-61
2021/07/03 05:14:15;;;;;;;14.23;12.80;;;15.20;99.90;;;;;;4955985;28;20456;-63
2021/07/03 05:16:42;;;;;;;16.07;14.53;;;15.30;99.90;;;;;;4955896;28;20459;-61
2021/07/03 05:19:09;;;;;;;15.50;13.90;;;15.40;99.90;;;;;;4955755;28;20467;-61
2021/07/03 05:21:36;;;;;;;14.77;13.40;;;15.40;99.90;;;;;;4955878;28;20479;-64
2021/07/03 05:24:03;;;;;;;14.47;13.17;;;15.50;99.90;;;;;;4955889;28;20463;-62
2021/07/03 05:26:31;;;;;;;15.07;13.33;;;15.60;99.90;;;;;;4955922;28;20799;-63
2021/07/03 05:28:57;;;;;;;14.93;13.20;;;15.60;99.90;;;;;;4956070;28;20462;-62
2021/07/03 05:31:24;;;;;;;14.20;12.90;;;15.80;99.90;;;;;;4955776;28;20506;-64
2021/07/03 05:33:51;;;;;;;14.97;13.47;;;16.00;99.90;;;;;;4955811;28;20491;-62
2021/07/03 05:36:18;;;;;;;13.77;12.53;;;16.20;99.90;;;;;;4955725;28;20455;-62
2021/07/03 05:38:46;;;;;;;13.37;12.17;;;16.30;99.90;;;;;;4955708;28;20783;-61
2021/07/03 05:41:14;;;;;;;13.97;12.67;;;16.50;99.90;;;;;;4955787;28;20475;-62
2021/07/03 05:43:43;;;;;;;12.23;11.23;;;16.60;99.90;;;;;;4955830;28;20448;-62
2021/07/03 05:46:11;;;;;;;13.93;12.17;;;16.80;99.90;;;;;;4956144;28;20455;-62
2021/07/03 05:48:40;;;;;;;15.27;12.27;;;16.90;99.90;;;;;;4955590;28;20459;-62
2021/07/03 05:51:07;;;;;;;12.70;11.50;;;17.10;99.90;;;;;;4955527;28;20486;-62
2021/07/03 05:53:34;;;;;;;13.03;11.57;;;17.30;99.90;;;;;;4955575;28;20501;-62
2021/07/03 05:56:00;;;;;;;13.00;11.60;;;17.40;99.90;;;;;;4955615;28;20516;-63
2021/07/03 05:58:27;;;;;;;14.03;12.10;;;17.50;99.90;;;;;;4955333;28;20938;-62
2021/07/03 06:00:55;;;;;;;12.40;11.40;;;17.70;99.90;;;;;;4955290;28;20494;-62
2021/07/03 06:03:22;;;;;;;12.57;11.47;;;17.70;99.90;;;;;;4956246;28;20946;-62
2021/07/03 06:05:49;;;;;;;12.63;11.43;;;17.90;99.90;;;;;;4958938;28;20459;-62
2021/07/03 06:08:16;;;;;;;12.73;11.43;;;18.00;99.90;;;;;;4959162;28;20494;-62
2021/07/03 06:10:43;;;;;;;12.40;11.27;;;18.10;99.90;;;;;;4959137;28;20482;-63
2021/07/03 06:13:09;;;;;;;11.80;10.80;;;18.20;99.90;;;;;;4958809;28;20475;-64
2021/07/03 06:15:37;;;;;;;12.30;11.17;;;18.30;99.90;;;;;;4958478;28;20459;-63
2021/07/03 06:18:05;;;;;;;11.67;10.67;;;18.30;99.90;;;;;;4958927;28;20467;-63
2021/07/03 06:20:32;;;;;;;11.47;10.27;;;18.40;99.90;;;;;;4958962;28;20471;-62
2021/07/03 06:22:58;;;;;;;11.73;10.30;;;18.60;99.90;;;;;;4958804;28;20455;-61
2021/07/03 06:25:25;;;;;;;13.83;10.80;;;18.70;99.90;;;;;;4958795;28;20459;-64
2021/07/03 06:27:52;;;;;;;11.70;10.67;;;19.00;99.90;;;;;;4958814;28;20488;-65
2021/07/03 06:30:19;;;;;;;11.90;10.20;;;19.00;99.90;;;;;;4958519;28;20947;-63
2021/07/03 06:32:45;;;;;;;11.00;10.00;;;19.20;99.90;;;;;;4958464;28;20482;-62
2021/07/03 06:35:13;;;;;;;10.80;9.90;;;19.40;99.90;;;;;;4958638;28;20460;-62
2021/07/03 06:37:40;;;;;;;11.67;10.67;;;19.70;99.90;;;;;;4958659;29;20464;-63
2021/07/03 06:40:07;;;;;;;11.13;9.93;;;19.80;99.90;;;;;;4958569;28;20456;-63
2021/07/03 06:42:34;;;;;;;11.23;10.13;;;20.10;99.90;;;;;;4958304;29;20479;-63
2021/07/03 06:45:01;;;;;;;10.90;10.10;;;20.30;99.90;;;;;;4958487;28;20584;-63
2021/07/03 06:47:28;;;;;;;10.87;9.87;;;20.50;99.90;;;;;;4957783;28;20511;-63
2021/07/03 06:49:54;;;;;;;10.77;9.73;;;20.70;99.90;;;;;;4958442;29;20467;-63
2021/07/03 06:52:23;;;;;;;9.80;9.00;;;20.80;99.90;;;;;;4958296;29;20479;-63
2021/07/03 06:54:50;;;;;;;9.90;9.10;;;21.10;99.90;;;;;;4958443;28;20445;-63
2021/07/03 06:57:17;;;;;;;9.77;8.97;;;21.30;99.90;;;;;;4958702;29;20463;-62
2021/07/03 06:59:43;;;;;;;10.10;9.20;;;21.50;99.90;;;;;;4957947;29;20808;-62
2021/07/03 07:02:10;;;;;;;8.80;8.00;;;21.90;99.90;;;;;;4957483;29;20496;-61
2021/07/03 07:04:37;;;;;;;8.63;8.00;;;22.30;99.90;;;;;;4958012;29;20483;-62
2021/07/03 07:07:04;;;;;;;10.37;9.40;;;22.90;99.90;;;;;;4957753;29;20471;-62
2021/07/03 07:09:32;;;;;;;9.20;8.40;;;23.50;99.90;;;;;;4957867;29;20466;-62
2021/07/03 07:11:59;;;;;;;9.53;8.63;;;23.80;99.90;;;;;;4957871;29;20482;-62
2021/07/03 07:14:26;;;;;;;10.00;9.20;;;24.30;99.90;;;;;;4957690;28;20519;-66
2021/07/03 07:16:53;;;;;;;9.33;8.43;;;24.70;99.90;;;;;;4958263;29;20463;-65
2021/07/03 07:19:19;;;;;;;11.20;8.77;;;25.20;99.90;;;;;;4958503;29;20471;-66
2021/07/03 07:21:46;;;;;;;9.27;8.57;;;25.70;99.90;;;;;;4958173;29;20841;-65
2021/07/03 07:24:13;;;;;;;8.90;8.00;;;26.20;99.90;;;;;;4958426;29;20965;-65
2021/07/03 07:26:41;;;;;;;8.33;7.80;;;26.40;99.90;;;;;;4958289;29;20452;-63
2021/07/03 07:29:08;;;;;;;8.53;7.80;;;26.50;99.90;;;;;;4957473;29;20459;-64
2021/07/03 07:31:35;;;;;;;8.63;7.83;;;26.90;99.90;;;;;;4957371;29;20516;-64
2021/07/03 07:34:02;;;;;;;8.80;8.00;;;27.20;98.90;;;;;;4957649;29;20502;-64
2021/07/03 07:36:29;;;;;;;8.20;7.43;;;27.40;97.60;;;;;;4957922;29;20456;-64
2021/07/03 07:38:55;;;;;;;9.37;7.83;;;27.70;97.70;;;;;;4957301;29;20462;-64
2021/07/03 07:41:22;;;;;;;7.90;7.20;;;27.80;96.80;;;;;;4957645;29;20835;-64
2021/07/03 07:43:50;;;;;;;8.00;7.40;;;27.70;95.90;;;;;;4957581;29;20501;-65
2021/07/03 07:46:17;;;;;;;8.77;7.17;;;27.70;94.50;;;;;;4957686;29;20536;-64
2021/07/03 07:48:43;;;;;;;8.23;7.63;;;27.70;93.70;;;;;;4957583;29;20466;-65
2021/07/03 07:51:10;;;;;;;8.17;7.53;;;27.70;94.40;;;;;;4957365;29;20986;-65
2021/07/03 07:53:37;;;;;;;8.60;8.00;;;28.00;94.70;;;;;;4957339;29;20482;-65
2021/07/03 07:56:04;;;;;;;7.57;6.97;;;28.40;93.80;;;;;;4957772;29;20476;-64
2021/07/03 07:58:31;;;;;;;8.90;8.10;;;27.70;92.20;;;;;;4957357;29;20444;-65
2021/07/03 08:00:59;;;;;;;7.67;7.07;;;28.10;91.80;;;;;;4957458;29;20499;-65
2021/07/03 08:03:25;;;;;;;8.63;8.10;;;28.70;91.30;;;;;;4958092;29;20479;-64
2021/07/03 08:05:52;;;;;;;8.20;7.50;;;29.20;91.90;;;;;;4957527;29;20927;-64
2021/07/03 08:08:19;;;;;;;8.57;7.90;;;29.50;90.10;;;;;;4956923;29;20459;-64
2021/07/03 08:10:46;;;;;;;8.60;7.90;;;29.40;91.00;;;;;;4957728;29;20479;-64
2021/07/03 08:13:12;;;;;;;8.40;7.60;;;29.10;90.20;;;;;;4957013;29;20487;-65
2021/07/03 08:15:39;;;;;;;8.83;8.00;;;29.10;92.80;;;;;;4957211;29;20942;-64
2021/07/03 08:18:07;;;;;;;7.77;7.27;;;29.60;87.40;;;;;;4956819;29;20958;-64
2021/07/03 08:20:35;;;;;;;8.40;7.77;;;30.00;85.90;;;;;;4956817;29;20491;-64
2021/07/03 08:23:02;;;;;;;8.07;7.47;;;30.30;86.80;;;;;;4957034;29;20531;-64
2021/07/03 08:25:29;;;;;;;6.70;6.20;;;30.20;82.60;;;;;;4955872;28;20466;-64
2021/07/03 08:27:57;;;;;;;8.27;7.60;;;29.80;82.00;;;;;;4956598;29;20459;-64
2021/07/03 08:30:24;;;;;;;7.00;6.50;;;30.10;83.10;;;;;;4956596;29;20466;-64
2021/07/03 08:32:51;;;;;;;7.20;6.70;;;30.10;86.50;;;;;;4956712;29;20482;-65
2021/07/03 08:35:19;;;;;;;7.33;6.63;;;30.40;83.80;;;;;;4957190;29;20459;-66
2021/07/03 08:37:46;;;;;;;6.93;6.37;;;31.10;77.80;;;;;;4960513;29;20463;-66
2021/07/03 08:40:15;;;;;;;7.30;6.80;;;31.40;78.40;;;;;;4961129;29;20499;-65
2021/07/03 08:42:42;;;;;;;7.73;7.20;;;31.20;81.30;;;;;;4962032;29;20455;-67
2021/07/03 08:45:10;;;;;;;7.40;6.90;;;31.80;73.70;;;;;;4962483;29;20452;-67
2021/07/03 08:47:39;;;;;;;6.77;6.27;;;32.00;76.30;;;;;;4963355;29;20942;-67
2021/07/03 08:50:07;;;;;;;7.70;7.20;;;32.60;69.30;;;;;;4963692;29;20451;-67
2021/07/03 08:52:36;;;;;;;8.00;7.40;;;32.90;72.00;;;;;;4966638;29;20490;-65
2021/07/03 08:55:12;;;;;;;5.90;5.60;;;32.90;66.50;;;;;;4967168;29;20484;-65
2021/07/03 08:57:44;;;;;;;6.63;6.13;;;33.30;64.30;;;;;;4966422;29;20507;-65
2021/07/03 09:00:12;;;;;;;7.30;6.80;;;33.60;64.10;;;;;;4965509;29;20946;-65
2021/07/03 09:02:41;;;;;;;7.00;6.50;;;33.60;65.50;;;;;;4965134;29;20451;-65
2021/07/03 09:05:19;;;;;;;6.80;6.40;;;33.00;65.60;;;;;;4966163;29;20471;-65
2021/07/03 09:07:47;;;;;;;7.20;6.60;;;32.90;61.90;;;;;;4957807;29;20445;-64
2021/07/03 09:10:19;;;;;;;7.87;7.27;;;33.20;66.60;;;;;;4956647;29;20455;-64
2021/07/03 09:12:49;;;;;;;7.10;6.57;;;32.90;65.30;;;;;;4956695;29;20518;-64
2021/07/03 09:15:17;;;;;;;6.97;6.53;;;33.10;70.10;;;;;;4956536;29;20941;-64
2021/07/03 09:17:49;;;;;;;6.60;6.00;;;33.50;60.20;;;;;;4956521;29;20459;-64
2021/07/03 09:20:23;;;;;;;6.67;6.20;;;33.30;59.00;;;;;;4956461;29;20554;-64
2021/07/03 09:22:52;;;;;;;6.70;6.20;;;33.30;65.90;;;;;;4956571;29;20439;-64
2021/07/03 09:25:19;;;;;;;6.43;6.03;;;33.60;66.10;;;;;;4956338;29;20458;-64
2021/07/03 09:27:47;;;;;;;5.83;5.43;;;33.80;58.70;;;;;;4956500;29;20959;-64
2021/07/03 09:30:15;;;;;;;6.37;5.97;;;33.90;59.50;;;;;;4956296;29;20459;-64
2021/07/03 09:32:48;;;;;;;6.30;5.90;;;34.30;56.90;;;;;;4956580;28;20947;-64
2021/07/03 09:35:16;;;;;;;6.10;5.80;;;34.40;56.70;;;;;;4956714;29;20470;-64
2021/07/03 09:37:42;;;;;;;6.47;6.07;;;34.00;57.10;;;;;;4957197;28;20470;-64
2021/07/03 09:40:11;;;;;;;7.73;6.20;;;34.20;57.50;;;;;;4960508;29;20462;-64
2021/07/03 09:42:39;;;;;;;7.40;6.70;;;34.40;59.00;;;;;;4960444;29;20478;-63
2021/07/03 09:45:08;;;;;;;6.70;6.30;;;34.60;58.20;;;;;;4960014;29;20455;-63
2021/07/03 09:47:36;;;;;;;7.17;6.67;;;34.80;57.50;;;;;;4960002;29;20461;-64
2021/07/03 09:50:05;;;;;;;7.03;6.43;;;34.90;55.60;;;;;;4964382;29;20966;-64
2021/07/03 09:52:34;;;;;;;7.03;6.63;;;34.80;58.10;;;;;;4963262;29;20475;-64
2021/07/03 09:55:01;;;;;;;7.00;6.53;;;35.40;55.30;;;;;;4960702;29;20479;-64
2021/07/03 09:57:30;;;;;;;6.00;5.70;;;35.70;57.20;;;;;;4960234;29;20465;-64
2021/07/03 09:59:56;;;;;;;7.20;6.57;;;35.90;60.40;;;;;;4959674;29;20509;-64
2021/07/03 10:02:23;;;;;;;7.17;6.60;;;35.70;55.60;;;;;;4958957;29;20486;-64
2021/07/03 10:04:50;;;;;;;6.23;5.83;;;36.00;54.50;;;;;;4959698;29;20474;-64
2021/07/03 10:07:22;;;;;;;6.73;6.13;;;36.50;53.20;;;;;;4959997;29;20451;-64
2021/07/03 10:09:52;;;;;;;6.60;6.13;;;36.10;53.50;;;;;;4959928;29;20446;-64
2021/07/03 10:12:25;;;;;;;6.70;6.30;;;35.90;54.40;;;;;;4961692;29;20478;-64
2021/07/03 10:14:54;;;;;;;5.97;5.57;;;36.30;53.50;;;;;;4960807;29;20578;-64
2021/07/03 10:17:25;;;;;;;7.17;6.67;;;36.40;51.50;;;;;;4959200;29;20481;-63
2021/07/03 10:19:52;;;;;;;7.03;6.63;;;35.70;51.60;;;;;;4958779;29;20460;-63
2021/07/03 10:22:20;;;;;;;6.60;6.20;;;35.70;53.70;;;;;;4959090;29;20506;-64
2021/07/03 10:24:51;;;;;;;6.30;5.93;;;35.50;54.40;;;;;;4959652;28;20769;-64
2021/07/03 10:27:20;;;;;;;6.43;6.00;;;35.20;57.60;;;;;;4958797;29;20435;-64
2021/07/03 10:29:48;;;;;;;6.93;6.40;;;35.40;51.90;;;;;;4958994;29;20466;-64
2021/07/03 10:32:29;;;;;;;7.20;6.70;;;35.60;53.80;;;;;;4958897;28;20513;-64
2021/07/03 10:35:07;;;;;;;6.90;6.30;;;35.00;51.40;;;;;;4958776;29;20546;-64
2021/07/03 10:37:34;;;;;;;6.50;6.00;;;35.50;53.40;;;;;;4958948;29;20443;-64
2021/07/03 10:40:02;;;;;;;6.73;6.23;;;35.30;52.20;;;;;;4958402;29;20451;-64
2021/07/03 10:42:30;;;;;;;6.37;6.07;;;34.70;55.10;;;;;;4958397;29;20485;-64
2021/07/03 10:45:08;;;;;;;6.90;6.30;;;34.70;52.70;;;;;;4958518;29;20436;-64
2021/07/03 10:47:36;;;;;;;6.80;6.30;;;34.20;51.50;;;;;;4958513;29;20444;-64
2021/07/03 10:50:04;;;;;;;6.50;6.10;;;34.40;53.10;;;;;;4957791;28;20831;-64
2021/07/03 10:52:40;;;;;;;6.10;5.70;;;34.50;51.80;;;;;;4958162;29;20486;-64
2021/07/03 10:55:08;;;;;;;6.47;5.97;;;33.90;55.10;;;;;;4957948;29;20467;-64
2021/07/03 10:57:42;;;;;;;5.97;5.57;;;33.10;56.70;;;;;;4957704;28;20460;-64
2021/07/03 11:00:21;;;;;;;6.00;5.60;;;32.80;54.70;;;;;;4958521;28;20443;-62
2021/07/03 11:02:50;;;;;;;5.60;5.30;;;33.30;58.00;;;;;;4957746;29;20503;-64
2021/07/03 11:05:17;;;;;;;5.80;5.40;;;33.30;54.50;;;;;;4958553;29;20463;-64
2021/07/03 11:07:45;;;;;;;5.90;5.60;;;33.10;56.70;;;;;;4957892;29;20482;-64
2021/07/03 11:10:15;;;;;;;6.17;5.77;;;33.60;53.30;;;;;;4957881;29;20459;-64
2021/07/03 11:12:48;;;;;;;5.50;5.20;;;33.60;54.70;;;;;;4958793;29;20486;-64
2021/07/03 11:15:16;;;;;;;6.47;5.97;;;34.10;51.90;;;;;;4957840;29;20490;-62
2021/07/03 11:17:42;;;;;;;5.87;5.47;;;34.10;53.90;;;;;;4957800;29;20462;-62
2021/07/03 11:20:21;;;;;;;6.13;5.73;;;33.90;52.30;;;;;;4957687;29;20463;-62
2021/07/03 11:22:48;;;;;;;5.70;5.20;;;33.90;55.10;;;;;;4957717;28;20443;-62
2021/07/03 11:25:24;;;;;;;5.60;5.30;;;33.50;52.20;;;;;;4957626;29;20460;-61
2021/07/03 11:28:07;;;;;;;5.40;5.07;;;33.10;53.00;;;;;;4957091;29;20487;-62
2021/07/03 11:30:35;;;;;;;6.10;5.60;;;31.60;51.70;;;;;;4957716;29;20471;-62
2021/07/03 11:33:02;;;;;;;6.27;5.87;;;31.20;52.70;;;;;;4957784;29;20462;-65
2021/07/03 11:35:33;;;;;;;6.17;5.67;;;31.10;53.90;;;;;;4957595;29;20479;-65
2021/07/03 11:38:00;;;;;;;6.07;5.67;;;30.80;55.90;;;;;;4957773;29;20436;-65
2021/07/03 11:40:28;;;;;;;5.83;5.43;;;30.60;57.00;;;;;;4957201;29;20630;-65
2021/07/03 11:42:56;;;;;;;6.10;5.70;;;30.30;54.60;;;;;;4957397;29;20459;-65
2021/07/03 11:45:26;;;;;;;6.07;5.67;;;29.80;58.80;;;;;;4957364;28;20939;-64
2021/07/03 11:47:55;;;;;;;6.03;5.63;;;29.90;55.20;;;;;;4957160;29;20460;-64
2021/07/03 11:50:31;;;;;;;5.43;5.13;;;29.80;55.10;;;;;;4957272;29;20822;-64
2021/07/03 11:53:00;;;;;;;5.80;5.50;;;29.80;62.40;;;;;;4957590;28;20560;-64
2021/07/03 11:55:30;;;;;;;6.23;5.70;;;29.10;61.90;;;;;;4957038;29;20480;-63
2021/07/03 11:57:57;;;;;;;5.40;5.10;;;29.20;60.10;;;;;;4957102;29;20467;-64
2021/07/03 12:00:26;;;;;;;6.30;5.90;;;29.50;60.10;;;;;;4956660;28;20463;-63
2021/07/03 12:02:53;;;;;;;6.17;5.77;;;29.40;58.10;;;;;;4956571;29;20470;-64
2021/07/03 12:05:24;;;;;;;5.63;5.27;;;29.40;57.40;;;;;;4957235;29;20449;-64
2021/07/03 12:08:04;;;;;;;5.23;4.83;;;29.10;55.70;;;;;;4956935;29;20475;-64
2021/07/03 12:10:40;;;;;;;5.73;5.33;;;29.00;56.90;;;;;;4956249;29;20800;-64
2021/07/03 12:13:10;;;;;;;5.40;5.00;;;29.10;58.40;;;;;;4956461;29;20440;-65
2021/07/03 12:15:37;;;;;;;6.43;6.03;;;29.20;59.30;;;;;;4956406;29;20485;-65
2021/07/03 12:18:04;;;;;;;5.63;5.23;;;29.20;60.40;;;;;;4956309;29;20827;-64
2021/07/03 12:20:31;;;;;;;5.97;5.50;;;29.50;61.60;;;;;;4956153;29;20462;-64
2021/07/03 12:23:00;;;;;;;6.53;5.90;;;29.60;55.90;;;;;;4956305;29;20494;-64
2021/07/03 12:25:29;;;;;;;5.63;5.33;;;29.60;56.90;;;;;;4956336;29;20458;-64
2021/07/03 12:27:59;;;;;;;5.70;5.33;;;29.50;56.60;;;;;;4956251;29;20452;-64
2021/07/03 12:30:26;;;;;;;5.50;5.10;;;29.40;56.30;;;;;;4957054;29;20484;-64
2021/07/03 12:33:05;;;;;;;5.57;5.17;;;29.50;57.50;;;;;;4957168;29;20467;-64
2021/07/03 12:35:37;;;;;;;6.80;5.17;;;29.30;58.90;;;;;;4956164;29;20566;-64
2021/07/03 12:38:04;;;;;;;5.53;5.13;;;29.50;58.50;;;;;;4955889;29;20466;-65
2021/07/03 12:40:39;;;;;;;5.20;4.90;;;29.30;56.70;;;;;;4955707;29;20456;-64
2021/07/03 12:43:06;;;;;;;6.60;6.20;;;29.30;57.90;;;;;;4956057;29;20923;-64
2021/07/03 12:45:33;;;;;;;5.80;5.37;;;29.40;59.50;;;;;;4956373;29;20462;-64
2021/07/03 12:48:09;;;;;;;5.60;5.17;;;29.40;58.30;;;;;;4956642;29;20939;-64
2021/07/03 12:50:36;;;;;;;5.83;5.43;;;29.60;57.10;;;;;;4955595;29;20483;-64
2021/07/03 12:53:06;;;;;;;5.80;5.50;;;29.40;57.30;;;;;;4955969;29;20462;-64
2021/07/03 12:55:42;;;;;;;6.27;5.77;;;29.30;58.60;;;;;;4955882;29;20491;-64
2021/07/03 12:58:21;;;;;;;5.70;5.30;;;29.40;58.00;;;;;;4956125;29;20455;-64
2021/07/03 13:00:49;;;;;;;5.70;5.30;;;29.30;56.90;;;;;;4955654;29;20486;-65
2021/07/03 13:03:16;;;;;;;6.97;6.50;;;29.20;58.60;;;;;;4955881;29;20444;-64
2021/07/03 13:05:43;;;;;;;7.30;5.33;;;29.10;59.00;;;;;;4955892;29;20459;-65
2021/07/03 13:08:10;;;;;;;6.40;6.00;;;29.20;57.80;;;;;;4955894;29;20455;-65
2021/07/03 13:10:36;;;;;;;5.63;5.23;;;29.10;56.50;;;;;;4955395;29;20488;-64
2021/07/03 13:13:06;;;;;;;6.40;6.00;;;29.20;58.60;;;;;;4958016;28;20467;-65
2021/07/03 13:15:33;;;;;;;6.03;5.63;;;29.30;59.60;;;;;;4959570;29;21021;-64
2021/07/03 13:18:00;;;;;;;7.13;6.67;;;28.70;56.20;;;;;;4960072;29;20460;-64
2021/07/03 13:20:27;;;;;;;5.70;5.30;;;28.70;60.20;;;;;;4959430;29;20463;-64
2021/07/03 13:22:54;;;;;;;6.60;5.97;;;28.80;59.50;;;;;;4959723;29;20470;-65
2021/07/03 13:25:21;;;;;;;7.57;6.80;;;28.80;57.90;;;;;;4960604;29;20463;-64
2021/07/03 13:27:47;;;;;;;5.80;5.40;;;29.00;57.10;;;;;;4959579;29;20466;-64
2021/07/03 13:30:17;;;;;;;5.83;5.33;;;29.10;56.80;;;;;;4959259;29;20451;-64
2021/07/03 13:32:44;;;;;;;5.10;4.70;;;28.90;57.90;;;;;;4959469;29;20455;-65
2021/07/03 13:35:12;;;;;;;5.63;5.30;;;28.60;58.40;;;;;;4959039;29;20486;-64
2021/07/03 13:37:38;;;;;;;5.10;4.70;;;28.60;62.40;;;;;;4959446;29;20463;-65
2021/07/03 13:40:06;;;;;;;6.17;5.67;;;28.70;60.60;;;;;;4959427;29;20471;-65
2021/07/03 13:42:33;;;;;;;5.50;5.00;;;28.90;65.80;;;;;;4959237;28;20471;-64
2021/07/03 13:45:00;;;;;;;6.43;5.83;;;29.00;64.80;;;;;;4959186;29;20440;-65
2021/07/03 13:47:28;;;;;;;5.90;5.50;;;29.20;63.50;;;;;;4959174;29;20459;-65
2021/07/03 13:49:55;;;;;;;6.10;5.70;;;29.50;65.40;;;;;;4959328;29;20463;-65
2021/07/03 13:52:21;;;;;;;5.40;4.93;;;29.70;60.00;;;;;;4958856;29;20475;-64
2021/07/03 13:54:48;;;;;;;6.27;5.70;;;30.00;58.90;;;;;;4958984;29;20478;-64
2021/07/03 13:57:15;;;;;;;5.73;5.30;;;29.90;60.80;;;;;;4958899;29;20462;-64
2021/07/03 13:59:41;;;;;;;5.87;5.30;;;29.90;60.40;;;;;;4958655;29;20463;-65
2021/07/03 14:02:09;;;;;;;5.90;5.50;;;30.00;59.90;;;;;;4958690;29;20483;-64
2021/07/03 14:04:37;;;;;;;5.60;5.20;;;30.00;61.60;;;;;;4958981;29;20459;-64
2021/07/03 14:07:04;;;;;;;5.50;5.10;;;30.00;59.30;;;;;;4959060;29;20466;-64
2021/07/03 14:09:31;;;;;;;5.87;5.47;;;29.90;62.30;;;;;;4959095;29;20965;-65
2021/07/03 14:11:57;;;;;;;6.67;6.10;;;29.70;62.00;;;;;;4958543;29;20994;-66
2021/07/03 14:14:24;;;;;;;6.23;5.83;;;29.50;60.20;;;;;;4958765;29;20455;-66
2021/07/03 14:16:51;;;;;;;8.67;6.27;;;29.50;60.90;;;;;;4958762;29;20483;-65
2021/07/03 14:19:18;;;;;;;5.47;5.07;;;29.40;63.50;;;;;;4958851;29;20530;-65
2021/07/03 14:21:46;;;;;;;5.73;5.33;;;29.30;60.50;;;;;;4958707;29;20481;-66
2021/07/03 14:24:13;;;;;;;5.40;5.00;;;29.10;60.20;;;;;;4957797;28;20455;-65
2021/07/03 14:26:40;;;;;;;6.13;5.50;;;29.20;61.00;;;;;;4958711;29;20836;-65
2021/07/03 14:29:07;;;;;;;5.60;5.10;;;29.40;62.20;;;;;;4958341;29;20467;-65
2021/07/03 14:31:34;;;;;;;6.10;5.50;;;29.50;58.00;;;;;;4958651;29;20482;-65
2021/07/03 14:34:01;;;;;;;5.60;5.10;;;29.70;61.50;;;;;;4958342;29;20468;-66
2021/07/03 14:36:27;;;;;;;5.63;5.33;;;29.90;59.40;;;;;;4958532;29;20483;-66
2021/07/03 14:38:55;;;;;;;5.90;5.40;;;29.30;57.90;;;;;;4958176;29;20451;-65
2021/07/03 14:41:23;;;;;;;5.30;4.90;;;29.50;59.90;;;;;;4958583;29;20491;-65
2021/07/03 14:43:49;;;;;;;5.53;5.13;;;29.60;57.70;;;;;;4958752;29;20455;-65
2021/07/03 14:46:16;;;;;;;6.17;5.77;;;29.40;57.60;;;;;;4958543;29;20455;-65
2021/07/03 14:48:43;;;;;;;5.83;5.33;;;29.20;58.30;;;;;;4958444;29;20459;-65
2021/07/03 14:51:11;;;;;;;5.63;5.33;;;29.40;60.90;;;;;;4958134;29;20479;-65
2021/07/03 14:53:37;;;;;;;6.07;5.67;;;29.40;62.50;;;;;;4958306;29;20510;-65
2021/07/03 14:56:06;;;;;;;5.50;5.10;;;29.30;60.60;;;;;;4958122;29;20505;-65
2021/07/03 14:58:33;;;;;;;5.63;5.20;;;29.40;61.10;;;;;;4958206;29;20885;-65
2021/07/03 15:01:00;;;;;;;4.90;4.60;;;29.30;61.80;;;;;;4957199;29;20463;-65
2021/07/03 15:03:26;;;;;;;5.83;5.53;;;29.00;62.20;;;;;;4958096;29;20444;-65
2021/07/03 15:05:53;;;;;;;6.23;5.73;;;28.70;60.60;;;;;;4958096;29;20447;-65
2021/07/03 15:08:20;;;;;;;5.97;5.40;;;28.60;61.00;;;;;;4957896;29;20459;-65
2021/07/03 15:10:47;;;;;;;5.10;4.80;;;28.40;63.80;;;;;;4957786;29;20471;-65
2021/07/03 15:13:15;;;;;;;5.83;5.50;;;28.40;61.60;;;;;;4957720;29;20463;-65
2021/07/03 15:15:41;;;;;;;5.90;5.50;;;28.50;62.10;;;;;;4957963;29;20848;-65
2021/07/03 15:18:08;;;;;;;6.37;5.97;;;28.40;63.30;;;;;;4957883;29;20835;-65
2021/07/03 15:20:35;;;;;;;8.03;7.40;;;28.40;63.10;;;;;;4956993;29;20947;-65
2021/07/03 15:23:03;;;;;;;7.43;6.90;;;28.30;61.60;;;;;;4957536;29;20451;-65
2021/07/03 15:25:29;;;;;;;16.70;10.80;;;28.40;62.50;;;;;;4957641;29;20452;-65
2021/07/03 15:27:56;;;;;;;13.00;11.63;;;28.40;64.10;;;;;;4958916;28;20462;-65
2021/07/03 15:30:27;;;;;;;7.37;6.87;;;28.40;63.40;;;;;;4957631;28;20459;-65
2021/07/03 15:32:56;;;;;;;6.67;6.23;;;28.50;63.50;;;;;;4957665;29;20451;-65
2021/07/03 15:35:24;;;;;;;6.47;6.07;;;28.50;63.60;;;;;;4956812;28;20484;-65
2021/07/03 15:37:51;;;;;;;6.33;5.83;;;28.40;61.80;;;;;;4956893;29;20806;-65
2021/07/03 15:40:19;;;;;;;6.73;6.13;;;28.40;63.90;;;;;;4957086;29;20467;-66
2021/07/03 15:42:45;;;;;;;5.97;5.63;;;28.30;66.10;;;;;;4957324;29;20467;-64
2021/07/03 15:45:13;;;;;;;24.40;22.30;;;28.40;64.60;;;;;;4956983;29;20955;-66
2021/07/03 15:47:41;;;;;;;9.93;9.10;;;28.40;66.00;;;;;;4956664;28;20486;-66
2021/07/03 15:50:10;;;;;;;11.27;10.27;;;28.40;62.80;;;;;;4956704;29;20800;-64
2021/07/03 15:52:36;;;;;;;21.83;19.77;;;28.50;62.50;;;;;;4957047;28;20475;-65
2021/07/03 15:55:08;;;;;;;13.70;12.30;;;28.40;61.60;;;;;;4956945;28;20440;-65
2021/07/03 15:57:36;;;;;;;18.57;17.00;;;28.50;64.90;;;;;;4956826;28;20468;-65
2021/07/03 16:00:03;;;;;;;13.50;12.50;;;28.60;63.80;;;;;;4956366;28;20976;-65
2021/07/03 16:02:30;;;;;;;7.57;7.00;;;28.60;64.50;;;;;;4956427;28;20486;-64
2021/07/03 16:04:58;;;;;;;6.80;6.27;;;28.60;64.20;;;;;;4956718;29;20491;-65
2021/07/03 16:07:24;;;;;;;7.47;6.97;;;28.50;64.70;;;;;;4956866;29;20451;-64
2021/07/03 16:09:51;;;;;;;7.77;7.07;;;28.50;62.70;;;;;;4956873;29;20456;-65
2021/07/03 16:12:18;;;;;;;13.07;8.30;;;28.50;63.00;;;;;;4957135;29;21015;-65
2021/07/03 16:14:45;;;;;;;26.00;23.80;;;28.40;63.80;;;;;;4967835;29;20459;-69
2021/07/03 16:17:12;;;;;;;65.30;58.60;;;28.40;65.50;;;;;;4960211;29;20468;-70
2021/07/03 16:19:38;;;;;;;28.87;25.97;;;28.40;63.40;;;;;;4964189;28;20486;-69
2021/07/03 16:22:07;;;;;;;19.73;17.63;;;28.40;67.20;;;;;;4957417;28;20472;-69
2021/07/03 16:24:34;;;;;;;13.83;12.50;;;28.30;66.00;;;;;;4956465;28;20459;-69
2021/07/03 16:27:01;;;;;;;6.73;6.23;;;28.40;67.60;;;;;;4956555;28;20451;-68
2021/07/03 16:29:27;;;;;;;6.17;5.77;;;28.30;64.50;;;;;;4956381;29;20460;-68
2021/07/03 16:31:55;;;;;;;7.40;6.87;;;28.10;65.80;;;;;;4956208;29;20482;-69
2021/07/03 16:34:21;;;;;;;7.43;6.43;;;27.90;69.40;;;;;;4956198;29;20463;-69
2021/07/03 16:36:48;;;;;;;6.40;6.00;;;27.90;65.60;;;;;;4956051;29;20482;-68
2021/07/03 16:39:16;;;;;;;6.20;5.80;;;27.80;64.80;;;;;;4956217;29;20467;-68
2021/07/03 16:41:43;;;;;;;6.43;5.90;;;27.60;65.80;;;;;;4956173;29;20476;-68
2021/07/03 16:44:10;;;;;;;5.70;5.33;;;27.50;66.90;;;;;;4956287;29;20459;-68